sensor_id;sensor_type;location;lat;lon;timestamp;P1;durP1;ratioP1;P2;durP2;ratioP2
71836;SDS011;59686;51.716;7.016;2022-11-20T00:01:08;22.33;;;16.17;;
71836;SDS011;59686;51.716;7.016;2022-11-20T00:03:41;21.23;;;15.47;;
71836;SDS011;59686;51.716;7.016;2022-11-20T00:06:08;25.30;;;15.83;;
71836;SDS011;59686;51.716;7.016;2022-11-20T00:08:38;23.70;;;14.60;;
71836;SDS011;59686;51.716;7.016;2022-11-20T00:13:31;18.03;;;13.73;;
71836;SDS011;59686;51.716;7.016;2022-11-20T00:15:58;21.40;;;14.40;;
71836;SDS011;59686;51.716;7.016;2022-11-20T00:18:25;18.33;;;13.80;;
71836;SDS011;59686;51.716;7.016;2022-11-20T00:20:51;19.17;;;12.97;;
71836;SDS011;59686;51.716;7.016;2022-11-20T00:23:17;18.93;;;13.17;;
71836;SDS011;59686;51.716;7.016;2022-11-20T00:25:42;19.97;;;12.97;;
71836;SDS011;59686;51.716;7.016;2022-11-20T00:28:08;18.13;;;12.90;;
71836;SDS011;59686;51.716;7.016;2022-11-20T00:30:34;16.90;;;12.20;;
71836;SDS011;59686;51.716;7.016;2022-11-20T00:32:59;18.90;;;12.90;;
71836;SDS011;59686;51.716;7.016;2022-11-20T00:35:25;17.37;;;12.37;;
71836;SDS011;59686;51.716;7.016;2022-11-20T00:37:51;18.23;;;11.67;;
71836;SDS011;59686;51.716;7.016;2022-11-20T00:40:16;15.50;;;12.00;;
71836;SDS011;59686;51.716;7.016;2022-11-20T00:42:45;16.93;;;11.93;;
71836;SDS011;59686;51.716;7.016;2022-11-20T00:45:10;20.30;;;12.10;;
71836;SDS011;59686;51.716;7.016;2022-11-20T00:47:36;15.73;;;11.67;;
71836;SDS011;59686;51.716;7.016;2022-11-20T00:50:02;13.93;;;10.57;;
71836;SDS011;59686;51.716;7.016;2022-11-20T00:52:28;16.97;;;11.33;;
71836;SDS011;59686;51.716;7.016;2022-11-20T00:54:54;14.77;;;11.20;;
71836;SDS011;59686;51.716;7.016;2022-11-20T00:57:19;14.60;;;10.93;;
71836;SDS011;59686;51.716;7.016;2022-11-20T00:59:45;15.37;;;10.93;;
71836;SDS011;59686;51.716;7.016;2022-11-20T01:02:11;14.37;;;10.93;;
71836;SDS011;59686;51.716;7.016;2022-11-20T01:04:36;15.33;;;10.77;;
71836;SDS011;59686;51.716;7.016;2022-11-20T01:07:02;14.53;;;11.10;;
71836;SDS011;59686;51.716;7.016;2022-11-20T01:09:27;13.47;;;10.33;;
71836;SDS011;59686;51.716;7.016;2022-11-20T01:11:53;14.90;;;11.10;;
71836;SDS011;59686;51.716;7.016;2022-11-20T01:14:19;17.03;;;11.07;;
71836;SDS011;59686;51.716;7.016;2022-11-20T01:16:46;15.90;;;11.03;;
71836;SDS011;59686;51.716;7.016;2022-11-20T01:19:15;16.73;;;11.10;;
71836;SDS011;59686;51.716;7.016;2022-11-20T01:21:45;19.73;;;13.13;;
71836;SDS011;59686;51.716;7.016;2022-11-20T01:24:13;16.83;;;12.60;;
71836;SDS011;59686;51.716;7.016;2022-11-20T01:26:41;16.13;;;12.03;;
71836;SDS011;59686;51.716;7.016;2022-11-20T01:29:13;17.83;;;12.77;;
71836;SDS011;59686;51.716;7.016;2022-11-20T01:31:40;21.97;;;13.87;;
71836;SDS011;59686;51.716;7.016;2022-11-20T01:34:08;20.10;;;13.63;;
71836;SDS011;59686;51.716;7.016;2022-11-20T01:36:36;22.00;;;14.10;;
71836;SDS011;59686;51.716;7.016;2022-11-20T01:39:06;21.40;;;14.60;;
71836;SDS011;59686;51.716;7.016;2022-11-20T01:41:35;21.00;;;14.90;;
71836;SDS011;59686;51.716;7.016;2022-11-20T01:44:20;20.93;;;14.37;;
71836;SDS011;59686;51.716;7.016;2022-11-20T01:47:07;19.90;;;13.90;;
71836;SDS011;59686;51.716;7.016;2022-11-20T01:49:41;19.60;;;13.77;;
71836;SDS011;59686;51.716;7.016;2022-11-20T01:52:27;17.70;;;13.13;;
71836;SDS011;59686;51.716;7.016;2022-11-20T01:55:01;18.97;;;12.53;;
71836;SDS011;59686;51.716;7.016;2022-11-20T01:57:31;18.13;;;12.27;;
71836;SDS011;59686;51.716;7.016;2022-11-20T02:00:02;16.60;;;12.07;;
71836;SDS011;59686;51.716;7.016;2022-11-20T02:02:31;17.10;;;12.23;;
71836;SDS011;59686;51.716;7.016;2022-11-20T02:04:58;18.07;;;12.00;;
71836;SDS011;59686;51.716;7.016;2022-11-20T02:07:29;15.33;;;11.10;;
71836;SDS011;59686;51.716;7.016;2022-11-20T02:09:55;17.13;;;11.63;;
71836;SDS011;59686;51.716;7.016;2022-11-20T02:12:21;16.67;;;11.03;;
71836;SDS011;59686;51.716;7.016;2022-11-20T02:15:05;14.30;;;10.47;;
71836;SDS011;59686;51.716;7.016;2022-11-20T02:17:31;15.67;;;10.80;;
71836;SDS011;59686;51.716;7.016;2022-11-20T02:19:56;14.63;;;10.23;;
71836;SDS011;59686;51.716;7.016;2022-11-20T02:22:25;15.17;;;10.80;;
71836;SDS011;59686;51.716;7.016;2022-11-20T02:24:56;14.83;;;9.93;;
71836;SDS011;59686;51.716;7.016;2022-11-20T02:27:23;13.03;;;9.83;;
71836;SDS011;59686;51.716;7.016;2022-11-20T02:29:53;14.13;;;10.30;;
71836;SDS011;59686;51.716;7.016;2022-11-20T02:32:20;13.40;;;10.13;;
71836;SDS011;59686;51.716;7.016;2022-11-20T02:34:48;13.20;;;10.20;;
71836;SDS011;59686;51.716;7.016;2022-11-20T02:37:14;13.67;;;9.67;;
71836;SDS011;59686;51.716;7.016;2022-11-20T02:39:40;14.40;;;9.83;;
71836;SDS011;59686;51.716;7.016;2022-11-20T02:42:07;12.90;;;9.60;;
71836;SDS011;59686;51.716;7.016;2022-11-20T02:44:33;11.57;;;9.20;;
71836;SDS011;59686;51.716;7.016;2022-11-20T02:46:58;15.03;;;9.93;;
71836;SDS011;59686;51.716;7.016;2022-11-20T02:49:24;12.97;;;9.70;;
71836;SDS011;59686;51.716;7.016;2022-11-20T02:51:50;14.07;;;9.77;;
71836;SDS011;59686;51.716;7.016;2022-11-20T02:54:16;12.80;;;9.20;;
71836;SDS011;59686;51.716;7.016;2022-11-20T02:56:42;12.90;;;9.57;;
71836;SDS011;59686;51.716;7.016;2022-11-20T02:59:08;14.90;;;9.60;;
71836;SDS011;59686;51.716;7.016;2022-11-20T03:01:35;12.97;;;9.30;;
71836;SDS011;59686;51.716;7.016;2022-11-20T03:04:00;12.60;;;8.67;;
71836;SDS011;59686;51.716;7.016;2022-11-20T03:06:26;11.80;;;9.40;;
71836;SDS011;59686;51.716;7.016;2022-11-20T03:08:52;12.43;;;9.20;;
71836;SDS011;59686;51.716;7.016;2022-11-20T03:11:18;13.33;;;9.40;;
71836;SDS011;59686;51.716;7.016;2022-11-20T03:13:43;12.23;;;9.80;;
71836;SDS011;59686;51.716;7.016;2022-11-20T03:16:13;12.73;;;9.20;;
71836;SDS011;59686;51.716;7.016;2022-11-20T03:18:41;12.60;;;9.33;;
71836;SDS011;59686;51.716;7.016;2022-11-20T03:21:08;11.77;;;9.27;;
71836;SDS011;59686;51.716;7.016;2022-11-20T03:23:35;11.37;;;9.43;;
71836;SDS011;59686;51.716;7.016;2022-11-20T03:26:13;12.97;;;9.13;;
71836;SDS011;59686;51.716;7.016;2022-11-20T03:28:56;12.37;;;9.13;;
71836;SDS011;59686;51.716;7.016;2022-11-20T03:31:25;14.23;;;9.30;;
71836;SDS011;59686;51.716;7.016;2022-11-20T03:34:04;12.97;;;9.50;;
71836;SDS011;59686;51.716;7.016;2022-11-20T03:36:30;13.00;;;8.90;;
71836;SDS011;59686;51.716;7.016;2022-11-20T03:38:56;13.87;;;8.70;;
71836;SDS011;59686;51.716;7.016;2022-11-20T03:41:34;12.03;;;9.20;;
71836;SDS011;59686;51.716;7.016;2022-11-20T03:44:03;10.83;;;9.00;;
71836;SDS011;59686;51.716;7.016;2022-11-20T03:46:29;10.03;;;8.20;;
71836;SDS011;59686;51.716;7.016;2022-11-20T03:48:56;12.33;;;8.33;;
71836;SDS011;59686;51.716;7.016;2022-11-20T03:51:26;11.27;;;8.83;;
71836;SDS011;59686;51.716;7.016;2022-11-20T03:53:57;13.20;;;8.83;;
71836;SDS011;59686;51.716;7.016;2022-11-20T03:56:24;12.13;;;8.93;;
71836;SDS011;59686;51.716;7.016;2022-11-20T03:58:52;11.77;;;9.33;;
71836;SDS011;59686;51.716;7.016;2022-11-20T04:01:19;12.60;;;8.23;;
71836;SDS011;59686;51.716;7.016;2022-11-20T04:03:48;11.00;;;8.47;;
71836;SDS011;59686;51.716;7.016;2022-11-20T04:06:14;10.80;;;8.30;;
71836;SDS011;59686;51.716;7.016;2022-11-20T04:09:07;10.37;;;8.20;;
71836;SDS011;59686;51.716;7.016;2022-11-20T04:11:33;10.27;;;7.77;;
71836;SDS011;59686;51.716;7.016;2022-11-20T04:14:02;10.13;;;8.10;;
71836;SDS011;59686;51.716;7.016;2022-11-20T04:16:29;10.30;;;8.83;;
71836;SDS011;59686;51.716;7.016;2022-11-20T04:18:57;9.43;;;7.90;;
71836;SDS011;59686;51.716;7.016;2022-11-20T04:21:24;10.60;;;8.27;;
71836;SDS011;59686;51.716;7.016;2022-11-20T04:23:51;12.30;;;8.50;;
71836;SDS011;59686;51.716;7.016;2022-11-20T04:26:21;10.67;;;8.30;;
71836;SDS011;59686;51.716;7.016;2022-11-20T04:31:18;13.20;;;8.40;;
71836;SDS011;59686;51.716;7.016;2022-11-20T04:33:49;10.57;;;8.27;;
71836;SDS011;59686;51.716;7.016;2022-11-20T04:36:15;12.47;;;8.27;;
71836;SDS011;59686;51.716;7.016;2022-11-20T04:38:43;10.57;;;8.47;;
71836;SDS011;59686;51.716;7.016;2022-11-20T04:41:17;10.33;;;8.00;;
71836;SDS011;59686;51.716;7.016;2022-11-20T04:43:48;8.97;;;7.23;;
71836;SDS011;59686;51.716;7.016;2022-11-20T04:46:15;10.97;;;7.97;;
71836;SDS011;59686;51.716;7.016;2022-11-20T04:48:45;9.03;;;7.83;;
71836;SDS011;59686;51.716;7.016;2022-11-20T04:51:11;10.47;;;7.90;;
71836;SDS011;59686;51.716;7.016;2022-11-20T04:53:37;9.77;;;7.97;;
71836;SDS011;59686;51.716;7.016;2022-11-20T04:56:07;10.17;;;7.90;;
71836;SDS011;59686;51.716;7.016;2022-11-20T04:58:34;11.97;;;8.77;;
71836;SDS011;59686;51.716;7.016;2022-11-20T05:01:04;10.23;;;7.53;;
71836;SDS011;59686;51.716;7.016;2022-11-20T05:03:40;9.23;;;7.43;;
71836;SDS011;59686;51.716;7.016;2022-11-20T05:06:07;9.87;;;7.50;;
71836;SDS011;59686;51.716;7.016;2022-11-20T05:08:34;10.10;;;7.00;;
71836;SDS011;59686;51.716;7.016;2022-11-20T05:11:03;9.53;;;8.00;;
71836;SDS011;59686;51.716;7.016;2022-11-20T05:13:34;10.60;;;7.63;;
71836;SDS011;59686;51.716;7.016;2022-11-20T05:16:01;8.53;;;7.27;;
71836;SDS011;59686;51.716;7.016;2022-11-20T05:18:31;10.20;;;7.90;;
71836;SDS011;59686;51.716;7.016;2022-11-20T05:20:57;9.03;;;7.53;;
71836;SDS011;59686;51.716;7.016;2022-11-20T05:23:23;9.43;;;7.60;;
71836;SDS011;59686;51.716;7.016;2022-11-20T05:25:53;10.83;;;7.60;;
71836;SDS011;59686;51.716;7.016;2022-11-20T05:28:20;8.23;;;7.23;;
71836;SDS011;59686;51.716;7.016;2022-11-20T05:30:46;8.43;;;7.37;;
71836;SDS011;59686;51.716;7.016;2022-11-20T05:33:12;8.80;;;7.10;;
71836;SDS011;59686;51.716;7.016;2022-11-20T05:35:38;7.50;;;6.70;;
71836;SDS011;59686;51.716;7.016;2022-11-20T05:38:03;9.07;;;6.97;;
71836;SDS011;59686;51.716;7.016;2022-11-20T05:40:29;10.87;;;7.93;;
71836;SDS011;59686;51.716;7.016;2022-11-20T05:42:55;9.03;;;7.13;;
71836;SDS011;59686;51.716;7.016;2022-11-20T05:45:20;8.80;;;7.40;;
71836;SDS011;59686;51.716;7.016;2022-11-20T05:47:46;9.30;;;7.77;;
71836;SDS011;59686;51.716;7.016;2022-11-20T05:50:12;8.83;;;7.70;;
71836;SDS011;59686;51.716;7.016;2022-11-20T05:52:38;9.40;;;8.37;;
71836;SDS011;59686;51.716;7.016;2022-11-20T05:55:03;7.90;;;7.03;;
71836;SDS011;59686;51.716;7.016;2022-11-20T05:57:30;8.90;;;7.63;;
71836;SDS011;59686;51.716;7.016;2022-11-20T05:59:56;8.20;;;7.10;;
71836;SDS011;59686;51.716;7.016;2022-11-20T06:02:21;9.43;;;7.33;;
71836;SDS011;59686;51.716;7.016;2022-11-20T06:04:47;8.70;;;7.27;;
71836;SDS011;59686;51.716;7.016;2022-11-20T06:07:13;8.83;;;7.03;;
71836;SDS011;59686;51.716;7.016;2022-11-20T06:09:39;8.57;;;7.03;;
71836;SDS011;59686;51.716;7.016;2022-11-20T06:12:05;8.97;;;7.17;;
71836;SDS011;59686;51.716;7.016;2022-11-20T06:14:30;8.90;;;7.33;;
71836;SDS011;59686;51.716;7.016;2022-11-20T06:16:56;9.57;;;7.27;;
71836;SDS011;59686;51.716;7.016;2022-11-20T06:19:22;9.50;;;7.30;;
71836;SDS011;59686;51.716;7.016;2022-11-20T06:21:48;9.53;;;7.47;;
71836;SDS011;59686;51.716;7.016;2022-11-20T06:24:14;10.00;;;7.47;;
71836;SDS011;59686;51.716;7.016;2022-11-20T06:26:41;10.97;;;7.80;;
71836;SDS011;59686;51.716;7.016;2022-11-20T06:29:06;9.43;;;7.73;;
71836;SDS011;59686;51.716;7.016;2022-11-20T06:31:32;10.23;;;8.07;;
71836;SDS011;59686;51.716;7.016;2022-11-20T06:36:53;9.97;;;7.53;;
71836;SDS011;59686;51.716;7.016;2022-11-20T06:39:19;10.10;;;8.00;;
71836;SDS011;59686;51.716;7.016;2022-11-20T06:41:44;9.97;;;7.90;;
71836;SDS011;59686;51.716;7.016;2022-11-20T06:44:10;12.37;;;8.53;;
71836;SDS011;59686;51.716;7.016;2022-11-20T06:46:36;9.50;;;7.93;;
71836;SDS011;59686;51.716;7.016;2022-11-20T06:49:01;11.27;;;8.90;;
71836;SDS011;59686;51.716;7.016;2022-11-20T06:51:27;9.63;;;8.03;;
71836;SDS011;59686;51.716;7.016;2022-11-20T06:53:53;8.77;;;7.40;;
71836;SDS011;59686;51.716;7.016;2022-11-20T06:56:19;10.57;;;8.30;;
71836;SDS011;59686;51.716;7.016;2022-11-20T06:58:44;9.90;;;7.60;;
71836;SDS011;59686;51.716;7.016;2022-11-20T07:01:10;9.23;;;7.73;;
71836;SDS011;59686;51.716;7.016;2022-11-20T07:03:38;13.23;;;8.23;;
71836;SDS011;59686;51.716;7.016;2022-11-20T07:06:05;9.37;;;7.80;;
71836;SDS011;59686;51.716;7.016;2022-11-20T07:08:31;10.87;;;7.83;;
71836;SDS011;59686;51.716;7.016;2022-11-20T07:10:58;9.97;;;8.13;;
71836;SDS011;59686;51.716;7.016;2022-11-20T07:13:24;9.93;;;7.97;;
71836;SDS011;59686;51.716;7.016;2022-11-20T07:15:50;10.00;;;8.17;;
71836;SDS011;59686;51.716;7.016;2022-11-20T07:18:16;9.87;;;7.83;;
71836;SDS011;59686;51.716;7.016;2022-11-20T07:20:42;9.60;;;8.47;;
71836;SDS011;59686;51.716;7.016;2022-11-20T07:23:07;9.67;;;7.77;;
71836;SDS011;59686;51.716;7.016;2022-11-20T07:25:33;10.20;;;8.33;;
71836;SDS011;59686;51.716;7.016;2022-11-20T07:27:59;8.63;;;7.33;;
71836;SDS011;59686;51.716;7.016;2022-11-20T07:30:26;11.17;;;8.80;;
71836;SDS011;59686;51.716;7.016;2022-11-20T07:32:55;11.23;;;8.30;;
71836;SDS011;59686;51.716;7.016;2022-11-20T07:35:21;10.77;;;8.67;;
71836;SDS011;59686;51.716;7.016;2022-11-20T07:37:48;11.27;;;9.00;;
71836;SDS011;59686;51.716;7.016;2022-11-20T07:40:14;11.30;;;8.27;;
71836;SDS011;59686;51.716;7.016;2022-11-20T07:42:51;10.87;;;8.73;;
71836;SDS011;59686;51.716;7.016;2022-11-20T07:45:18;11.03;;;9.07;;
71836;SDS011;59686;51.716;7.016;2022-11-20T07:47:44;11.87;;;8.90;;
71836;SDS011;59686;51.716;7.016;2022-11-20T07:50:10;11.40;;;8.83;;
71836;SDS011;59686;51.716;7.016;2022-11-20T07:52:37;11.47;;;9.20;;
71836;SDS011;59686;51.716;7.016;2022-11-20T07:55:05;12.77;;;9.77;;
71836;SDS011;59686;51.716;7.016;2022-11-20T07:57:31;12.17;;;9.63;;
71836;SDS011;59686;51.716;7.016;2022-11-20T07:59:57;12.17;;;9.27;;
71836;SDS011;59686;51.716;7.016;2022-11-20T08:02:22;13.27;;;10.30;;
71836;SDS011;59686;51.716;7.016;2022-11-20T08:04:48;12.77;;;10.17;;
71836;SDS011;59686;51.716;7.016;2022-11-20T08:07:14;15.20;;;10.70;;
71836;SDS011;59686;51.716;7.016;2022-11-20T08:09:39;14.57;;;11.17;;
71836;SDS011;59686;51.716;7.016;2022-11-20T08:12:05;15.07;;;11.33;;
71836;SDS011;59686;51.716;7.016;2022-11-20T08:14:49;17.77;;;11.67;;
71836;SDS011;59686;51.716;7.016;2022-11-20T08:17:15;14.07;;;11.37;;
71836;SDS011;59686;51.716;7.016;2022-11-20T08:19:41;16.07;;;12.23;;
71836;SDS011;59686;51.716;7.016;2022-11-20T08:22:06;17.27;;;13.40;;
71836;SDS011;59686;51.716;7.016;2022-11-20T08:24:32;19.40;;;12.97;;
71836;SDS011;59686;51.716;7.016;2022-11-20T08:26:58;19.13;;;13.77;;
71836;SDS011;59686;51.716;7.016;2022-11-20T08:29:38;19.63;;;13.40;;
71836;SDS011;59686;51.716;7.016;2022-11-20T08:32:04;20.10;;;13.77;;
71836;SDS011;59686;51.716;7.016;2022-11-20T08:34:30;18.20;;;14.13;;
71836;SDS011;59686;51.716;7.016;2022-11-20T08:36:55;16.40;;;13.80;;
71836;SDS011;59686;51.716;7.016;2022-11-20T08:39:21;16.87;;;13.27;;
71836;SDS011;59686;51.716;7.016;2022-11-20T08:41:47;18.17;;;13.87;;
71836;SDS011;59686;51.716;7.016;2022-11-20T08:44:12;18.03;;;13.73;;
71836;SDS011;59686;51.716;7.016;2022-11-20T08:46:39;16.80;;;13.10;;
71836;SDS011;59686;51.716;7.016;2022-11-20T08:49:07;18.77;;;13.70;;
71836;SDS011;59686;51.716;7.016;2022-11-20T08:51:35;17.80;;;14.33;;
71836;SDS011;59686;51.716;7.016;2022-11-20T08:54:02;16.63;;;12.43;;
71836;SDS011;59686;51.716;7.016;2022-11-20T08:56:28;16.30;;;12.97;;
71836;SDS011;59686;51.716;7.016;2022-11-20T08:58:54;17.43;;;12.77;;
71836;SDS011;59686;51.716;7.016;2022-11-20T09:01:20;16.47;;;13.33;;
71836;SDS011;59686;51.716;7.016;2022-11-20T09:03:46;15.40;;;12.93;;
71836;SDS011;59686;51.716;7.016;2022-11-20T09:06:13;17.73;;;13.37;;
71836;SDS011;59686;51.716;7.016;2022-11-20T09:08:39;17.07;;;12.93;;
71836;SDS011;59686;51.716;7.016;2022-11-20T09:11:05;15.83;;;12.40;;
71836;SDS011;59686;51.716;7.016;2022-11-20T09:13:32;15.43;;;12.63;;
71836;SDS011;59686;51.716;7.016;2022-11-20T09:16:00;15.80;;;12.40;;
71836;SDS011;59686;51.716;7.016;2022-11-20T09:18:30;16.60;;;12.83;;
71836;SDS011;59686;51.716;7.016;2022-11-20T09:21:01;16.40;;;12.80;;
71836;SDS011;59686;51.716;7.016;2022-11-20T09:23:38;16.97;;;12.10;;
71836;SDS011;59686;51.716;7.016;2022-11-20T09:26:05;16.03;;;12.03;;
71836;SDS011;59686;51.716;7.016;2022-11-20T09:28:35;15.40;;;11.80;;
71836;SDS011;59686;51.716;7.016;2022-11-20T09:31:04;15.47;;;12.33;;
71836;SDS011;59686;51.716;7.016;2022-11-20T09:33:34;13.70;;;11.27;;
71836;SDS011;59686;51.716;7.016;2022-11-20T09:36:00;15.43;;;12.47;;
71836;SDS011;59686;51.716;7.016;2022-11-20T09:38:26;15.00;;;11.90;;
71836;SDS011;59686;51.716;7.016;2022-11-20T09:41:02;18.00;;;12.43;;
71836;SDS011;59686;51.716;7.016;2022-11-20T09:43:32;16.60;;;12.23;;
71836;SDS011;59686;51.716;7.016;2022-11-20T09:46:07;15.90;;;11.67;;
71836;SDS011;59686;51.716;7.016;2022-11-20T09:54:17;16.13;;;12.40;;
71836;SDS011;59686;51.716;7.016;2022-11-20T09:56:49;15.83;;;11.77;;
71836;SDS011;59686;51.716;7.016;2022-11-20T09:59:36;15.53;;;11.87;;
71836;SDS011;59686;51.716;7.016;2022-11-20T10:04:46;15.87;;;12.17;;
71836;SDS011;59686;51.716;7.016;2022-11-20T10:07:19;16.43;;;12.50;;
71836;SDS011;59686;51.716;7.016;2022-11-20T10:10:02;15.07;;;12.60;;
71836;SDS011;59686;51.716;7.016;2022-11-20T10:12:36;16.80;;;11.57;;
71836;SDS011;59686;51.716;7.016;2022-11-20T10:23:17;15.43;;;11.77;;
71836;SDS011;59686;51.716;7.016;2022-11-20T10:25:46;15.33;;;11.57;;
71836;SDS011;59686;51.716;7.016;2022-11-20T10:31:02;18.13;;;12.90;;
71836;SDS011;59686;51.716;7.016;2022-11-20T10:33:31;16.13;;;12.30;;
71836;SDS011;59686;51.716;7.016;2022-11-20T10:36:05;17.80;;;12.93;;
71836;SDS011;59686;51.716;7.016;2022-11-20T10:38:35;17.10;;;12.90;;
71836;SDS011;59686;51.716;7.016;2022-11-20T10:41:01;18.13;;;13.57;;
71836;SDS011;59686;51.716;7.016;2022-11-20T10:43:46;18.03;;;13.10;;
71836;SDS011;59686;51.716;7.016;2022-11-20T10:46:20;17.30;;;13.20;;
71836;SDS011;59686;51.716;7.016;2022-11-20T10:48:49;17.43;;;12.90;;
71836;SDS011;59686;51.716;7.016;2022-11-20T10:51:18;18.13;;;13.07;;
71836;SDS011;59686;51.716;7.016;2022-11-20T10:54:12;16.93;;;13.40;;
71836;SDS011;59686;51.716;7.016;2022-11-20T10:56:49;18.60;;;13.00;;
71836;SDS011;59686;51.716;7.016;2022-11-20T11:02:17;20.43;;;13.07;;
71836;SDS011;59686;51.716;7.016;2022-11-20T11:04:52;19.30;;;12.57;;
71836;SDS011;59686;51.716;7.016;2022-11-20T11:07:53;18.30;;;12.63;;
71836;SDS011;59686;51.716;7.016;2022-11-20T11:12:45;19.07;;;13.17;;
71836;SDS011;59686;51.716;7.016;2022-11-20T11:15:24;18.37;;;13.33;;
71836;SDS011;59686;51.716;7.016;2022-11-20T11:17:52;17.93;;;12.93;;
71836;SDS011;59686;51.716;7.016;2022-11-20T11:20:18;19.50;;;14.03;;
71836;SDS011;59686;51.716;7.016;2022-11-20T11:22:47;18.83;;;13.07;;
71836;SDS011;59686;51.716;7.016;2022-11-20T11:25:18;16.90;;;12.73;;
71836;SDS011;59686;51.716;7.016;2022-11-20T11:27:55;20.53;;;13.87;;
71836;SDS011;59686;51.716;7.016;2022-11-20T11:30:24;18.37;;;12.90;;
71836;SDS011;59686;51.716;7.016;2022-11-20T11:33:05;18.33;;;13.63;;
71836;SDS011;59686;51.716;7.016;2022-11-20T11:35:38;20.90;;;13.53;;
71836;SDS011;59686;51.716;7.016;2022-11-20T11:38:14;19.87;;;13.40;;
71836;SDS011;59686;51.716;7.016;2022-11-20T11:40:44;21.30;;;13.77;;
71836;SDS011;59686;51.716;7.016;2022-11-20T11:43:17;19.60;;;13.43;;
71836;SDS011;59686;51.716;7.016;2022-11-20T11:46:05;20.43;;;13.07;;
71836;SDS011;59686;51.716;7.016;2022-11-20T11:48:57;21.40;;;14.53;;
71836;SDS011;59686;51.716;7.016;2022-11-20T11:54:38;19.10;;;13.17;;
71836;SDS011;59686;51.716;7.016;2022-11-20T11:57:52;19.87;;;13.57;;
71836;SDS011;59686;51.716;7.016;2022-11-20T12:00:00;17.57;;;12.73;;
71836;SDS011;59686;51.716;7.016;2022-11-20T12:02:36;20.43;;;13.53;;
71836;SDS011;59686;51.716;7.016;2022-11-20T12:05:17;19.87;;;13.87;;
71836;SDS011;59686;51.716;7.016;2022-11-20T12:10:38;19.73;;;13.80;;
71836;SDS011;59686;51.716;7.016;2022-11-20T12:16:21;20.77;;;13.17;;
71836;SDS011;59686;51.716;7.016;2022-11-20T12:18:51;19.10;;;13.63;;
71836;SDS011;59686;51.716;7.016;2022-11-20T12:21:25;20.20;;;13.20;;
71836;SDS011;59686;51.716;7.016;2022-11-20T12:32:03;17.80;;;13.37;;
71836;SDS011;59686;51.716;7.016;2022-11-20T12:34:35;18.17;;;12.70;;
71836;SDS011;59686;51.716;7.016;2022-11-20T12:39:41;19.87;;;13.30;;
71836;SDS011;59686;51.716;7.016;2022-11-20T12:45:02;18.60;;;12.80;;
71836;SDS011;59686;51.716;7.016;2022-11-20T12:47:56;17.97;;;12.73;;
71836;SDS011;59686;51.716;7.016;2022-11-20T12:50:52;19.23;;;13.27;;
71836;SDS011;59686;51.716;7.016;2022-11-20T12:53:33;17.30;;;12.70;;
71836;SDS011;59686;51.716;7.016;2022-11-20T13:07:40;19.23;;;13.07;;
71836;SDS011;59686;51.716;7.016;2022-11-20T13:10:13;16.63;;;12.60;;
71836;SDS011;59686;51.716;7.016;2022-11-20T13:14:04;18.33;;;12.70;;
71836;SDS011;59686;51.716;7.016;2022-11-20T13:19:02;17.27;;;11.80;;
71836;SDS011;59686;51.716;7.016;2022-11-20T13:21:36;17.40;;;12.63;;
71836;SDS011;59686;51.716;7.016;2022-11-20T13:24:21;19.23;;;12.93;;
71836;SDS011;59686;51.716;7.016;2022-11-20T13:27:02;20.20;;;13.73;;
71836;SDS011;59686;51.716;7.016;2022-11-20T13:29:30;20.87;;;13.23;;
71836;SDS011;59686;51.716;7.016;2022-11-20T13:32:16;20.00;;;12.97;;
71836;SDS011;59686;51.716;7.016;2022-11-20T13:35:23;17.17;;;11.97;;
71836;SDS011;59686;51.716;7.016;2022-11-20T13:37:37;19.77;;;12.60;;
71836;SDS011;59686;51.716;7.016;2022-11-20T13:45:57;17.17;;;12.60;;
71836;SDS011;59686;51.716;7.016;2022-11-20T13:48:26;17.40;;;12.50;;
71836;SDS011;59686;51.716;7.016;2022-11-20T13:53:47;19.07;;;13.07;;
71836;SDS011;59686;51.716;7.016;2022-11-20T14:02:21;18.10;;;11.90;;
71836;SDS011;59686;51.716;7.016;2022-11-20T14:04:49;18.63;;;12.37;;
71836;SDS011;59686;51.716;7.016;2022-11-20T14:07:18;18.17;;;12.13;;
71836;SDS011;59686;51.716;7.016;2022-11-20T14:09:56;17.50;;;12.43;;
71836;SDS011;59686;51.716;7.016;2022-11-20T14:12:27;18.53;;;11.90;;
71836;SDS011;59686;51.716;7.016;2022-11-20T14:14:55;18.20;;;11.73;;
71836;SDS011;59686;51.716;7.016;2022-11-20T14:17:22;17.10;;;12.03;;
71836;SDS011;59686;51.716;7.016;2022-11-20T14:19:59;17.80;;;12.27;;
71836;SDS011;59686;51.716;7.016;2022-11-20T14:22:31;16.93;;;12.27;;
71836;SDS011;59686;51.716;7.016;2022-11-20T14:25:01;19.30;;;13.00;;
71836;SDS011;59686;51.716;7.016;2022-11-20T14:27:27;17.33;;;12.47;;
71836;SDS011;59686;51.716;7.016;2022-11-20T14:29:53;18.43;;;12.97;;
71836;SDS011;59686;51.716;7.016;2022-11-20T14:32:19;17.23;;;12.27;;
71836;SDS011;59686;51.716;7.016;2022-11-20T14:34:49;17.63;;;12.57;;
71836;SDS011;59686;51.716;7.016;2022-11-20T14:37:23;17.33;;;12.23;;
71836;SDS011;59686;51.716;7.016;2022-11-20T14:39:54;21.40;;;12.87;;
71836;SDS011;59686;51.716;7.016;2022-11-20T14:42:22;16.60;;;12.07;;
71836;SDS011;59686;51.716;7.016;2022-11-20T14:44:50;17.83;;;11.73;;
71836;SDS011;59686;51.716;7.016;2022-11-20T14:47:27;18.93;;;12.33;;
71836;SDS011;59686;51.716;7.016;2022-11-20T14:49:54;17.97;;;12.70;;
71836;SDS011;59686;51.716;7.016;2022-11-20T14:52:23;18.13;;;12.30;;
71836;SDS011;59686;51.716;7.016;2022-11-20T14:57:57;18.67;;;12.40;;
71836;SDS011;59686;51.716;7.016;2022-11-20T15:00:28;17.40;;;12.50;;
71836;SDS011;59686;51.716;7.016;2022-11-20T15:02:55;18.47;;;12.70;;
71836;SDS011;59686;51.716;7.016;2022-11-20T15:05:22;17.37;;;12.10;;
71836;SDS011;59686;51.716;7.016;2022-11-20T15:08:08;19.13;;;12.03;;
71836;SDS011;59686;51.716;7.016;2022-11-20T15:10:37;19.07;;;12.53;;
71836;SDS011;59686;51.716;7.016;2022-11-20T15:13:13;16.50;;;12.07;;
71836;SDS011;59686;51.716;7.016;2022-11-20T15:18:15;16.03;;;12.03;;
71836;SDS011;59686;51.716;7.016;2022-11-20T15:20:44;17.10;;;12.13;;
71836;SDS011;59686;51.716;7.016;2022-11-20T15:23:11;16.57;;;12.23;;
71836;SDS011;59686;51.716;7.016;2022-11-20T15:25:38;19.57;;;12.80;;
71836;SDS011;59686;51.716;7.016;2022-11-20T15:28:07;17.43;;;12.47;;
71836;SDS011;59686;51.716;7.016;2022-11-20T15:30:42;17.27;;;12.30;;
71836;SDS011;59686;51.716;7.016;2022-11-20T15:33:09;17.10;;;12.73;;
71836;SDS011;59686;51.716;7.016;2022-11-20T15:35:36;15.97;;;12.00;;
71836;SDS011;59686;51.716;7.016;2022-11-20T15:38:02;16.57;;;11.47;;
71836;SDS011;59686;51.716;7.016;2022-11-20T15:40:27;16.10;;;11.97;;
71836;SDS011;59686;51.716;7.016;2022-11-20T15:42:53;17.17;;;13.00;;
71836;SDS011;59686;51.716;7.016;2022-11-20T15:45:28;15.60;;;12.10;;
71836;SDS011;59686;51.716;7.016;2022-11-20T15:47:58;16.77;;;12.47;;
71836;SDS011;59686;51.716;7.016;2022-11-20T15:50:27;16.23;;;12.30;;
71836;SDS011;59686;51.716;7.016;2022-11-20T15:53:01;17.13;;;12.27;;
71836;SDS011;59686;51.716;7.016;2022-11-20T15:55:26;17.90;;;12.43;;
71836;SDS011;59686;51.716;7.016;2022-11-20T15:57:52;16.07;;;12.60;;
71836;SDS011;59686;51.716;7.016;2022-11-20T16:00:18;17.70;;;12.33;;
71836;SDS011;59686;51.716;7.016;2022-11-20T16:02:43;16.07;;;12.23;;
71836;SDS011;59686;51.716;7.016;2022-11-20T16:05:10;17.53;;;12.47;;
71836;SDS011;59686;51.716;7.016;2022-11-20T16:07:37;19.13;;;13.47;;
71836;SDS011;59686;51.716;7.016;2022-11-20T16:10:03;18.10;;;12.43;;
71836;SDS011;59686;51.716;7.016;2022-11-20T16:12:29;17.60;;;12.37;;